Time;durP1;ratioP1;P1;durP2;ratioP2;P2;SDS_P1;SDS_P2;PMS_P1;PMS_P2;Temp;Humidity;BMP_temperature;BMP_pressure;BME280_temperature;BME280_humidity;BME280_pressure;Samples;Min_cycle;Max_cycle;Signal;HPM_P1;HPM_P2
2023/03/17 00:00:40;;;;;;;7.50;5.43;;;6.20;99.90;;;;;;5010826;28;20207;-64
2023/03/17 00:03:06;;;;;;;8.23;5.57;;;6.10;99.90;;;;;;5011158;28;20191;-64
2023/03/17 00:05:34;;;;;;;6.97;5.30;;;6.10;99.90;;;;;;5009970;28;20190;-65
2023/03/17 00:08:26;;;;;;;7.93;7.10;;;6.10;99.90;;;;;;5010724;28;20448;-64
2023/03/17 00:10:52;;;;;;;7.13;6.40;;;6.70;99.90;;;;;;5006976;28;20237;-64
2023/03/17 00:13:18;;;;;;;7.68;6.32;;;6.70;99.90;;;;;;5013126;28;20329;-64
2023/03/17 00:15:47;;;;;;;6.72;5.88;;;6.00;99.90;;;;;;5011066;28;20189;-64
2023/03/17 00:18:16;;;;;;;8.13;5.57;;;6.40;99.90;;;;;;5010315;28;20213;-64
2023/03/17 00:20:42;;;;;;;14.10;12.20;;;6.00;99.90;;;;;;5010793;28;20211;-63
2023/03/17 00:23:23;;;;;;;7.85;5.65;;;6.00;99.90;;;;;;5011110;28;20723;-64
2023/03/17 00:25:52;;;;;;;6.88;5.28;;;5.90;99.90;;;;;;5010616;28;20208;-64
2023/03/17 00:28:23;;;;;;;5.97;5.38;;;5.80;99.90;;;;;;5011629;28;20209;-63
2023/03/17 00:30:53;;;;;;;8.43;5.47;;;6.00;99.90;;;;;;5010993;28;20209;-64
2023/03/17 00:33:25;;;;;;;5.47;4.97;;;5.70;99.90;;;;;;5011349;28;20703;-64
2023/03/17 00:35:51;;;;;;;9.60;6.70;;;6.00;99.90;;;;;;5022531;28;20187;-65
2023/03/17 00:38:19;;;;;;;8.50;5.68;;;5.60;99.90;;;;;;5011045;28;20179;-64
2023/03/17 00:40:45;;;;;;;6.45;5.60;;;6.00;99.90;;;;;;5009479;28;20222;-64
2023/03/17 00:43:11;;;;;;;5.90;4.95;;;5.80;99.90;;;;;;5009874;28;20179;-65
2023/03/17 00:45:38;;;;;;;6.18;5.57;;;6.50;99.90;;;;;;5010603;28;20229;-64
2023/03/17 00:48:15;;;;;;;7.97;5.60;;;6.60;99.90;;;;;;5008603;28;20714;-64
2023/03/17 00:50:42;;;;;;;6.65;5.60;;;6.70;99.90;;;;;;5007438;28;20210;-66
2023/03/17 00:53:16;;;;;;;5.43;4.68;;;6.50;99.90;;;;;;5010773;28;20186;-64
2023/03/17 00:55:43;;;;;;;6.20;5.60;;;6.90;99.90;;;;;;5005843;28;20267;-64
2023/03/17 00:58:22;;;;;;;7.55;5.85;;;6.60;99.90;;;;;;5010102;28;20298;-64
2023/03/17 01:00:48;;;;;;;7.53;5.10;;;6.60;99.90;;;;;;5008634;28;20277;-66
2023/03/17 01:03:14;;;;;;;6.33;5.20;;;6.60;99.90;;;;;;5010335;28;20584;-65
2023/03/17 01:05:40;;;;;;;6.60;5.23;;;6.40;99.90;;;;;;5010195;28;20680;-65
2023/03/17 01:08:08;;;;;;;11.48;5.95;;;6.80;99.90;;;;;;5009742;28;20592;-65
2023/03/17 01:10:35;;;;;;;5.53;4.72;;;7.20;99.90;;;;;;5007018;28;20202;-65
2023/03/17 01:13:01;;;;;;;6.22;5.07;;;6.20;99.90;;;;;;5010346;28;20291;-64
2023/03/17 01:15:30;;;;;;;6.43;5.78;;;6.70;99.90;;;;;;5010371;28;20269;-64
2023/03/17 01:17:57;;;;;;;6.32;5.65;;;6.80;99.90;;;;;;5009524;28;20202;-65
2023/03/17 01:20:29;;;;;;;7.13;5.40;;;7.10;99.90;;;;;;5005788;28;20214;-65
2023/03/17 01:22:54;;;;;;;5.82;5.28;;;7.30;99.90;;;;;;5010163;28;20229;-65
2023/03/17 01:25:20;;;;;;;6.80;5.30;;;6.50;99.90;;;;;;5007915;28;20589;-65
2023/03/17 01:27:47;;;;;;;6.55;5.03;;;6.50;99.90;;;;;;5009908;28;20187;-65
2023/03/17 01:30:19;;;;;;;5.82;5.20;;;6.90;99.90;;;;;;5010180;28;20787;-65
2023/03/17 01:32:46;;;;;;;5.18;4.68;;;7.00;99.90;;;;;;5009282;28;20179;-65
2023/03/17 01:35:12;;;;;;;6.38;5.18;;;6.90;99.90;;;;;;5009588;28;20187;-64
2023/03/17 01:37:38;;;;;;;6.50;5.28;;;7.10;99.90;;;;;;5008080;28;20201;-64
2023/03/17 01:40:08;;;;;;;5.55;5.05;;;7.10;99.90;;;;;;5009001;28;20222;-65
2023/03/17 01:42:34;;;;;;;6.10;5.15;;;7.20;99.90;;;;;;5010004;28;20198;-65
2023/03/17 01:45:04;;;;;;;5.57;4.72;;;7.10;99.90;;;;;;5009562;28;20254;-65
2023/03/17 01:47:30;;;;;;;5.57;4.97;;;7.20;99.90;;;;;;5007830;28;20183;-65
2023/03/17 01:50:01;;;;;;;5.55;4.82;;;7.50;99.90;;;;;;5009111;28;20234;-65
2023/03/17 01:52:27;;;;;;;5.40;4.90;;;7.20;99.90;;;;;;5007186;28;20802;-65
2023/03/17 01:54:58;;;;;;;5.88;4.65;;;6.70;99.90;;;;;;5004796;28;20672;-64
2023/03/17 01:57:27;;;;;;;8.25;5.15;;;7.10;99.90;;;;;;5009353;28;20179;-65
2023/03/17 02:00:05;;;;;;;4.95;4.45;;;7.30;99.90;;;;;;5007859;28;20218;-65
2023/03/17 02:02:35;;;;;;;6.18;4.57;;;7.40;99.90;;;;;;5008549;28;20183;-64
2023/03/17 02:05:04;;;;;;;7.07;4.60;;;7.50;99.90;;;;;;5009879;28;20676;-65
2023/03/17 02:07:30;;;;;;;5.85;4.60;;;7.40;99.90;;;;;;5005927;28;20210;-66
2023/03/17 02:09:56;;;;;;;5.57;4.95;;;7.40;99.90;;;;;;5007160;28;20282;-65
2023/03/17 02:12:24;;;;;;;5.53;5.00;;;7.10;99.90;;;;;;5009235;28;20183;-65
2023/03/17 02:14:51;;;;;;;5.90;4.93;;;7.30;99.90;;;;;;5007885;28;20179;-65
2023/03/17 02:17:18;;;;;;;6.05;5.45;;;6.80;99.90;;;;;;5009198;28;20900;-65
2023/03/17 02:19:44;;;;;;;5.38;4.82;;;7.40;99.90;;;;;;5007195;28;20211;-65
2023/03/17 02:22:10;;;;;;;5.57;4.93;;;7.30;99.90;;;;;;5009134;28;20175;-65
2023/03/17 02:24:51;;;;;;;4.63;3.90;;;7.10;99.90;;;;;;5006753;28;20202;-65
2023/03/17 02:27:30;;;;;;;5.15;4.65;;;7.40;99.90;;;;;;5008612;28;20207;-65
2023/03/17 02:29:56;;;;;;;5.10;4.60;;;7.10;99.90;;;;;;5007682;28;20203;-64
2023/03/17 02:32:22;;;;;;;8.25;5.50;;;7.00;99.90;;;;;;5010140;28;20187;-65
2023/03/17 02:34:49;;;;;;;6.05;5.30;;;6.80;99.90;;;;;;5008281;28;20270;-65
2023/03/17 02:37:17;;;;;;;5.78;5.05;;;6.70;99.90;;;;;;5008816;28;20714;-65
2023/03/17 02:39:43;;;;;;;5.35;4.85;;;6.80;99.90;;;;;;5008377;28;20217;-65
2023/03/17 02:42:09;;;;;;;6.10;5.05;;;6.90;99.90;;;;;;5009072;28;20232;-65
2023/03/17 02:44:35;;;;;;;5.50;4.93;;;6.80;99.90;;;;;;5009256;28;20578;-65
2023/03/17 02:47:00;;;;;;;5.33;4.27;;;6.70;99.90;;;;;;5009084;28;20211;-65
2023/03/17 02:49:27;;;;;;;5.37;4.87;;;7.10;99.90;;;;;;5008160;28;20484;-65
2023/03/17 02:51:52;;;;;;;5.18;4.68;;;6.80;99.90;;;;;;5009553;28;20186;-64
2023/03/17 02:54:18;;;;;;;6.00;4.60;;;6.80;99.90;;;;;;5009008;28;20179;-66
2023/03/17 02:56:44;;;;;;;7.20;5.30;;;6.70;99.90;;;;;;5008651;28;20245;-65
2023/03/17 02:59:10;;;;;;;5.13;4.67;;;6.40;99.90;;;;;;5010123;28;20215;-64
2023/03/17 03:01:35;;;;;;;5.23;4.73;;;6.70;99.90;;;;;;5011792;28;20221;-64
2023/03/17 03:04:02;;;;;;;5.83;4.83;;;6.30;99.90;;;;;;5012045;28;20182;-65
2023/03/17 03:06:28;;;;;;;6.15;4.88;;;6.80;99.90;;;;;;5012301;28;20461;-65
2023/03/17 03:08:54;;;;;;;5.20;4.70;;;6.80;99.90;;;;;;5013029;28;20632;-65
2023/03/17 03:11:20;;;;;;;6.03;4.90;;;6.50;99.90;;;;;;5011752;28;20458;-65
2023/03/17 03:13:46;;;;;;;7.40;4.85;;;6.50;99.90;;;;;;5011196;28;20282;-65
2023/03/17 03:16:11;;;;;;;6.10;5.50;;;6.30;99.90;;;;;;5012581;28;20646;-64
2023/03/17 03:18:37;;;;;;;6.20;4.87;;;6.30;99.90;;;;;;5011901;28;20539;-65
2023/03/17 03:21:04;;;;;;;5.37;4.93;;;6.30;99.90;;;;;;5011697;28;20199;-64
2023/03/17 03:23:30;;;;;;;5.70;4.50;;;6.60;99.90;;;;;;5011681;28;20401;-65
2023/03/17 03:25:56;;;;;;;5.80;5.22;;;6.50;99.90;;;;;;5009691;28;20186;-65
2023/03/17 03:28:22;;;;;;;4.90;4.40;;;6.50;99.90;;;;;;5011706;28;20179;-65
2023/03/17 03:30:48;;;;;;;7.57;4.45;;;6.60;99.90;;;;;;5011053;28;20683;-65
2023/03/17 03:33:14;;;;;;;7.20;4.50;;;6.40;99.90;;;;;;5012147;28;20291;-65
2023/03/17 03:35:40;;;;;;;5.22;4.30;;;6.40;99.90;;;;;;5009919;28;20193;-65
2023/03/17 03:38:06;;;;;;;5.65;5.00;;;6.40;99.90;;;;;;5027037;28;20190;-64
2023/03/17 03:40:33;;;;;;;4.68;4.20;;;6.30;99.90;;;;;;5011146;28;20276;-65
2023/03/17 03:42:58;;;;;;;4.90;4.40;;;6.20;99.90;;;;;;5008884;28;20183;-65
2023/03/17 03:45:25;;;;;;;5.77;5.23;;;6.30;99.90;;;;;;5012377;28;20218;-65
2023/03/17 03:47:51;;;;;;;5.32;4.82;;;6.30;99.90;;;;;;5011520;28;20543;-65
2023/03/17 03:50:18;;;;;;;5.90;5.30;;;6.30;99.90;;;;;;5010520;28;20277;-64
2023/03/17 03:52:44;;;;;;;5.57;4.90;;;6.40;99.90;;;;;;5012242;28;20600;-64
2023/03/17 03:55:10;;;;;;;5.57;5.07;;;6.10;99.90;;;;;;5010639;28;20194;-65
2023/03/17 03:57:35;;;;;;;6.73;5.07;;;6.20;99.90;;;;;;5009934;28;20274;-65
2023/03/17 04:00:02;;;;;;;5.10;4.60;;;6.60;99.90;;;;;;5011692;28;20765;-65
2023/03/17 04:02:28;;;;;;;4.90;4.25;;;6.30;99.90;;;;;;5011677;28;20434;-65
2023/03/17 04:04:54;;;;;;;5.18;4.68;;;6.10;99.90;;;;;;5004480;28;20619;-65
2023/03/17 04:07:20;;;;;;;5.97;4.90;;;6.20;99.90;;;;;;5009127;28;20183;-65
2023/03/17 04:09:48;;;;;;;4.70;4.30;;;5.90;99.90;;;;;;5006847;28;20214;-64
2023/03/17 04:12:14;;;;;;;8.40;4.90;;;6.50;99.90;;;;;;5009962;28;20179;-64
2023/03/17 04:14:41;;;;;;;5.18;4.68;;;5.90;99.90;;;;;;5011192;28;20682;-65
2023/03/17 04:17:07;;;;;;;4.93;4.40;;;6.10;99.90;;;;;;5011496;28;20194;-65
2023/03/17 04:19:33;;;;;;;6.50;4.57;;;6.40;99.90;;;;;;5008787;28;20203;-65
2023/03/17 04:21:59;;;;;;;5.72;4.18;;;5.90;99.90;;;;;;5008218;28;20274;-65
2023/03/17 04:24:26;;;;;;;4.60;4.20;;;5.90;99.90;;;;;;5007394;28;20186;-65
2023/03/17 04:26:52;;;;;;;6.63;5.13;;;5.90;99.90;;;;;;5009587;28;20208;-64
2023/03/17 04:29:18;;;;;;;6.20;4.43;;;6.00;99.90;;;;;;5007184;28;20197;-65
2023/03/17 04:31:44;;;;;;;6.90;5.30;;;5.90;99.90;;;;;;5007527;28;20186;-65
2023/03/17 04:34:15;;;;;;;5.07;4.40;;;5.60;99.90;;;;;;5007302;28;20649;-64
2023/03/17 04:36:41;;;;;;;4.93;4.43;;;5.70;99.90;;;;;;5004570;28;20194;-65
2023/03/17 04:39:07;;;;;;;19.52;11.40;;;5.70;99.90;;;;;;5008421;28;20209;-65
2023/03/17 04:41:33;;;;;;;5.87;5.03;;;5.60;99.90;;;;;;5006568;28;20281;-65
2023/03/17 04:43:58;;;;;;;4.93;4.43;;;5.70;99.90;;;;;;5008528;28;20187;-65
2023/03/17 04:46:24;;;;;;;5.40;4.30;;;5.70;99.90;;;;;;5007487;28;20656;-65
2023/03/17 04:48:50;;;;;;;4.63;4.13;;;6.10;99.90;;;;;;5009594;28;20201;-65
2023/03/17 04:51:16;;;;;;;5.43;4.93;;;5.70;99.90;;;;;;5008662;28;20256;-65
2023/03/17 04:53:42;;;;;;;5.23;4.73;;;5.80;99.90;;;;;;5009292;28;20277;-65
2023/03/17 04:56:07;;;;;;;5.60;5.10;;;5.60;99.90;;;;;;5006634;28;20183;-65
2023/03/17 04:58:33;;;;;;;5.07;4.57;;;5.80;99.90;;;;;;5007916;28;20187;-65
2023/03/17 05:00:59;;;;;;;7.67;5.27;;;5.80;99.90;;;;;;5011473;28;20244;-64
2023/03/17 05:03:26;;;;;;;9.97;6.27;;;5.60;99.90;;;;;;5007216;28;20183;-65
2023/03/17 05:05:51;;;;;;;5.25;4.75;;;5.80;99.90;;;;;;5006992;28;20433;-65
2023/03/17 05:08:17;;;;;;;7.67;5.80;;;5.80;99.90;;;;;;5005599;28;20696;-65
2023/03/17 05:10:43;;;;;;;5.30;4.70;;;6.00;99.90;;;;;;5004996;28;20220;-65
2023/03/17 05:13:08;;;;;;;4.73;4.33;;;5.70;99.90;;;;;;5008984;28;20592;-64
2023/03/17 05:15:35;;;;;;;5.70;4.53;;;5.70;99.90;;;;;;5010404;28;20440;-65
2023/03/17 05:18:02;;;;;;;5.20;4.70;;;5.70;99.90;;;;;;5015433;28;20193;-65
2023/03/17 05:20:27;;;;;;;5.10;4.40;;;5.80;99.90;;;;;;5007375;28;20304;-65
2023/03/17 05:22:53;;;;;;;4.70;4.30;;;5.70;99.90;;;;;;5006912;28;20655;-65
2023/03/17 05:25:19;;;;;;;5.50;4.90;;;5.30;99.90;;;;;;5006824;28;20603;-64
2023/03/17 05:27:44;;;;;;;6.30;4.33;;;5.50;99.90;;;;;;5005819;28;20697;-66
2023/03/17 05:30:10;;;;;;;5.30;4.03;;;5.40;99.90;;;;;;5009582;28;20212;-66
2023/03/17 05:32:36;;;;;;;7.60;4.47;;;5.30;99.90;;;;;;5007282;28;20198;-64
2023/03/17 05:35:02;;;;;;;5.40;4.37;;;5.00;99.90;;;;;;5007736;28;20198;-63
2023/03/17 05:37:28;;;;;;;4.78;4.28;;;5.30;99.90;;;;;;5009510;28;20193;-63
2023/03/17 05:39:54;;;;;;;7.00;4.33;;;5.40;99.90;;;;;;5003703;28;20227;-64
2023/03/17 05:42:20;;;;;;;4.93;4.43;;;5.90;99.90;;;;;;5008983;28;20445;-71
2023/03/17 05:44:45;;;;;;;4.65;4.15;;;4.80;99.90;;;;;;5006938;28;20208;-75
2023/03/17 05:47:11;;;;;;;7.77;5.50;;;5.70;99.90;;;;;;5000652;28;20241;-74
2023/03/17 05:49:36;;;;;;;4.77;4.37;;;5.20;99.90;;;;;;4998769;28;20308;-74
2023/03/17 05:52:02;;;;;;;5.53;5.00;;;5.10;99.90;;;;;;5003208;28;20273;-75
2023/03/17 05:54:28;;;;;;;5.17;4.40;;;4.90;99.90;;;;;;5008610;28;20558;-66
2023/03/17 05:56:53;;;;;;;4.90;4.40;;;4.80;99.90;;;;;;5006175;28;20206;-64
2023/03/17 05:59:19;;;;;;;4.10;3.70;;;5.50;99.90;;;;;;5007679;28;20767;-66
2023/03/17 06:01:45;;;;;;;5.70;4.50;;;5.00;99.90;;;;;;5008248;28;20244;-63
2023/03/17 06:04:10;;;;;;;4.30;3.90;;;5.80;99.90;;;;;;5008674;28;20202;-63
2023/03/17 06:06:36;;;;;;;4.60;4.20;;;5.60;99.90;;;;;;5009428;28;20215;-64
2023/03/17 06:09:02;;;;;;;5.83;4.70;;;5.60;99.90;;;;;;5008436;28;20593;-64
2023/03/17 06:11:27;;;;;;;6.60;4.40;;;5.80;99.90;;;;;;5006795;28;20244;-64
2023/03/17 06:13:53;;;;;;;4.70;3.93;;;5.40;99.90;;;;;;5006941;28;20234;-65
2023/03/17 06:16:19;;;;;;;5.70;4.50;;;6.10;99.90;;;;;;5007953;28;20700;-65
2023/03/17 06:18:45;;;;;;;7.32;4.68;;;6.00;99.90;;;;;;5006868;28;21362;-66
2023/03/17 06:21:11;;;;;;;6.93;4.27;;;6.00;99.90;;;;;;5009027;28;20664;-64
2023/03/17 06:23:37;;;;;;;4.65;4.15;;;6.00;99.90;;;;;;5008729;28;20612;-63
2023/03/17 06:26:03;;;;;;;6.30;4.13;;;6.30;99.90;;;;;;5007269;28;20653;-63
2023/03/17 06:28:29;;;;;;;7.18;4.00;;;6.30;99.90;;;;;;5007719;28;20441;-66
2023/03/17 06:30:55;;;;;;;6.07;4.18;;;6.30;99.90;;;;;;5006423;28;20230;-64
2023/03/17 06:33:22;;;;;;;4.63;4.07;;;6.30;99.90;;;;;;5006785;28;20178;-65
2023/03/17 06:35:48;;;;;;;4.75;4.18;;;6.00;99.90;;;;;;5010923;28;20714;-72
2023/03/17 06:38:14;;;;;;;4.53;4.13;;;6.10;99.90;;;;;;5011844;28;20191;-65
2023/03/17 06:40:40;;;;;;;4.90;4.17;;;6.40;99.90;;;;;;5009617;28;20225;-64
2023/03/17 06:43:06;;;;;;;6.15;3.70;;;6.40;99.90;;;;;;5010975;28;20194;-63
2023/03/17 06:45:32;;;;;;;4.82;4.32;;;6.50;99.90;;;;;;5011295;28;20230;-64
2023/03/17 06:47:58;;;;;;;6.53;4.00;;;6.60;99.90;;;;;;5009161;28;20231;-64
2023/03/17 06:50:24;;;;;;;4.60;3.63;;;6.10;99.90;;;;;;5007575;28;21256;-65
2023/03/17 06:52:50;;;;;;;5.38;3.70;;;6.10;99.90;;;;;;5010098;28;20534;-64
2023/03/17 06:55:16;;;;;;;6.60;5.23;;;6.80;99.90;;;;;;5011584;28;20300;-64
2023/03/17 06:57:42;;;;;;;7.32;4.82;;;6.80;99.90;;;;;;5012162;28;20195;-65
2023/03/17 07:00:11;;;;;;;6.18;4.75;;;6.70;99.90;;;;;;5009475;28;20211;-65
2023/03/17 07:02:37;;;;;;;9.07;5.15;;;7.20;99.90;;;;;;5008662;28;20278;-68
2023/03/17 07:05:03;;;;;;;4.70;4.30;;;7.20;99.90;;;;;;5010478;28;20270;-69
2023/03/17 07:07:29;;;;;;;5.03;4.55;;;7.50;99.90;;;;;;5015358;28;20416;-69
2023/03/17 07:09:54;;;;;;;6.53;5.10;;;7.50;99.20;;;;;;5008632;28;20253;-68
2023/03/17 07:12:20;;;;;;;5.17;4.67;;;7.40;99.30;;;;;;5010791;28;20214;-69
2023/03/17 07:14:46;;;;;;;4.93;3.87;;;8.10;99.10;;;;;;5010086;28;20689;-69
2023/03/17 07:17:13;;;;;;;5.80;3.80;;;8.90;98.20;;;;;;5010088;28;20449;-68
2023/03/17 07:19:40;;;;;;;4.75;4.35;;;9.60;96.50;;;;;;5003066;28;20563;-68
2023/03/17 07:22:06;;;;;;;6.63;4.80;;;10.90;94.00;;;;;;5007905;28;20178;-69
2023/03/17 07:24:33;;;;;;;3.95;3.53;;;11.50;92.00;;;;;;5008427;28;20189;-69
2023/03/17 07:26:58;;;;;;;6.68;4.43;;;12.60;90.50;;;;;;5009453;28;20610;-69
2023/03/17 07:29:24;;;;;;;4.50;3.80;;;13.10;86.60;;;;;;5010341;28;20187;-68
2023/03/17 07:31:50;;;;;;;3.90;3.60;;;13.30;81.90;;;;;;5008589;28;20233;-72
2023/03/17 07:34:16;;;;;;;4.73;3.77;;;12.90;81.90;;;;;;5038350;28;20187;-67
2023/03/17 07:36:42;;;;;;;5.50;4.00;;;13.20;82.10;;;;;;5007817;28;20191;-67
2023/03/17 07:39:08;;;;;;;7.10;5.23;;;13.50;82.00;;;;;;5009731;28;20274;-68
2023/03/17 07:41:33;;;;;;;7.63;4.73;;;13.60;82.40;;;;;;5007289;28;20187;-68
2023/03/17 07:44:00;;;;;;;4.17;3.77;;;14.00;80.80;;;;;;5015512;28;20441;-69
2023/03/17 07:46:26;;;;;;;6.85;6.25;;;14.40;79.10;;;;;;5010602;28;20229;-69
2023/03/17 07:48:52;;;;;;;5.27;4.60;;;14.00;79.10;;;;;;5007113;28;20218;-71
2023/03/17 07:51:21;;;;;;;7.37;5.43;;;14.80;77.90;;;;;;5006905;28;20556;-68
2023/03/17 07:53:48;;;;;;;7.95;6.15;;;14.90;76.40;;;;;;5010608;28;20266;-68
2023/03/17 07:56:15;;;;;;;6.72;5.72;;;14.80;75.80;;;;;;5009522;28;20179;-65
2023/03/17 07:58:41;;;;;;;7.20;6.05;;;14.90;75.70;;;;;;5007053;28;20229;-69
2023/03/17 08:01:07;;;;;;;12.97;11.00;;;15.30;75.10;;;;;;5007909;28;20218;-65
2023/03/17 08:03:33;;;;;;;12.38;11.00;;;15.50;75.60;;;;;;5005445;28;20187;-67
2023/03/17 08:05:59;;;;;;;9.20;6.00;;;16.00;73.20;;;;;;5009152;28;20747;-67
2023/03/17 08:08:27;;;;;;;9.10;5.90;;;16.00;69.80;;;;;;5007980;28;20437;-67
2023/03/17 08:11:02;;;;;;;7.38;5.70;;;16.60;72.90;;;;;;5005006;28;20217;-70
2023/03/17 08:13:29;;;;;;;10.93;7.28;;;16.60;69.50;;;;;;5007099;28;20269;-68
2023/03/17 08:15:54;;;;;;;6.95;6.35;;;17.20;69.90;;;;;;5005920;28;20184;-69
2023/03/17 08:18:20;;;;;;;10.13;5.70;;;17.40;67.40;;;;;;5006512;28;20187;-69
2023/03/17 08:20:46;;;;;;;7.60;6.17;;;17.70;64.70;;;;;;5007705;28;20210;-69
2023/03/17 08:23:13;;;;;;;9.93;6.17;;;18.30;66.00;;;;;;5005798;28;20488;-66
2023/03/17 08:25:39;;;;;;;8.38;6.05;;;18.40;64.70;;;;;;5006597;28;20187;-68
2023/03/17 08:28:04;;;;;;;6.87;6.00;;;18.40;63.60;;;;;;5007175;28;20248;-68
2023/03/17 08:30:30;;;;;;;7.13;5.60;;;18.20;65.10;;;;;;5008019;28;20472;-67
2023/03/17 08:32:56;;;;;;;7.93;6.47;;;17.20;63.70;;;;;;5008572;28;20800;-68
2023/03/17 08:35:23;;;;;;;9.57;5.77;;;17.10;62.90;;;;;;5005193;28;20195;-67
2023/03/17 08:37:49;;;;;;;11.43;6.32;;;17.00;63.80;;;;;;5008649;28;20895;-68
2023/03/17 08:40:18;;;;;;;10.10;6.30;;;16.90;64.00;;;;;;5005999;28;20364;-70
2023/03/17 08:42:45;;;;;;;9.75;5.97;;;16.80;64.10;;;;;;5003720;28;20937;-68
2023/03/17 08:45:11;;;;;;;7.35;6.30;;;17.00;64.90;;;;;;5009559;28;20183;-68
2023/03/17 08:47:38;;;;;;;10.45;6.82;;;17.80;64.10;;;;;;5008962;28;20245;-68
2023/03/17 08:50:10;;;;;;;7.25;6.43;;;17.70;62.20;;;;;;5003979;28;20214;-68
2023/03/17 08:52:36;;;;;;;10.65;5.80;;;18.40;61.00;;;;;;5005430;28;20357;-69
2023/03/17 08:55:02;;;;;;;9.00;6.28;;;18.50;59.80;;;;;;5001323;28;20187;-65
2023/03/17 08:57:28;;;;;;;6.40;5.80;;;18.70;59.70;;;;;;5008035;28;20191;-67
2023/03/17 08:59:54;;;;;;;6.27;5.40;;;18.30;58.90;;;;;;5008222;28;20328;-68
2023/03/17 09:02:20;;;;;;;46.33;41.53;;;18.60;59.00;;;;;;5007628;28;20187;-69
2023/03/17 09:04:46;;;;;;;47.60;42.55;;;18.90;58.80;;;;;;5008819;28;20795;-72
2023/03/17 09:07:11;;;;;;;25.10;22.50;;;18.70;58.00;;;;;;5007578;28;20321;-70
2023/03/17 09:09:38;;;;;;;10.60;9.10;;;18.40;57.90;;;;;;5004188;28;20470;-70
2023/03/17 09:12:05;;;;;;;7.00;6.30;;;18.40;57.40;;;;;;5008532;28;20568;-70
2023/03/17 09:14:33;;;;;;;7.35;5.63;;;18.50;58.90;;;;;;5006305;28;20190;-71
2023/03/17 09:16:59;;;;;;;2.95;1.90;;;18.70;59.20;;;;;;5008068;28;20411;-70
2023/03/17 09:19:26;;;;;;;2.33;2.10;;;19.90;52.40;;;;;;5008048;28;20759;-70
2023/03/17 09:21:51;;;;;;;2.10;1.90;;;20.30;50.30;;;;;;5008211;28;20457;-70
2023/03/17 09:24:18;;;;;;;4.73;3.40;;;20.50;50.20;;;;;;5007458;28;20438;-70
2023/03/17 09:26:44;;;;;;;2.45;1.65;;;20.30;50.30;;;;;;5014796;28;20837;-70
2023/03/17 09:29:10;;;;;;;1.80;1.67;;;20.60;47.70;;;;;;5007620;28;20276;-72
2023/03/17 09:31:36;;;;;;;1.60;1.50;;;20.60;48.00;;;;;;5008103;28;20433;-71
2023/03/17 09:34:03;;;;;;;1.60;1.50;;;21.10;46.90;;;;;;5005432;28;20575;-74
2023/03/17 09:36:32;;;;;;;2.17;1.63;;;21.00;45.60;;;;;;5007766;28;20189;-70
2023/03/17 09:38:58;;;;;;;1.83;1.40;;;21.00;45.80;;;;;;5006418;28;20201;-68
2023/03/17 09:42:06;;;;;;;2.20;1.40;;;21.10;45.80;;;;;;5005393;28;20461;-68
2023/03/17 09:44:51;;;;;;;1.40;1.30;;;21.10;45.80;;;;;;5007738;28;20896;-69
2023/03/17 09:47:40;;;;;;;2.37;1.53;;;21.40;46.10;;;;;;5006225;28;20438;-70
2023/03/17 09:50:16;;;;;;;2.07;1.67;;;22.00;46.00;;;;;;5003895;28;20461;-69
2023/03/17 09:52:42;;;;;;;1.87;1.60;;;22.70;45.60;;;;;;5007625;28;20574;-68
2023/03/17 09:55:19;;;;;;;1.70;1.33;;;23.40;43.50;;;;;;5006454;28;20495;-66
2023/03/17 09:57:45;;;;;;;2.67;2.20;;;23.90;43.10;;;;;;5007104;28;20647;-72
2023/03/17 10:00:15;;;;;;;2.73;1.60;;;24.40;43.00;;;;;;5007038;28;20562;-72
2023/03/17 10:02:42;;;;;;;7.70;3.50;;;24.90;41.70;;;;;;5006715;28;20442;-73
2023/03/17 10:05:23;;;;;;;3.50;2.70;;;24.90;41.30;;;;;;5009617;28;20989;-73
2023/03/17 10:08:04;;;;;;;3.43;2.80;;;25.10;40.00;;;;;;5010826;28;20852;-70
2023/03/17 10:10:41;;;;;;;2.07;1.57;;;25.70;40.40;;;;;;5007043;28;20465;-72
2023/03/17 10:13:26;;;;;;;2.10;1.90;;;25.60;37.50;;;;;;5036222;28;20484;-68
2023/03/17 10:16:05;;;;;;;2.70;1.23;;;24.50;38.30;;;;;;4997492;28;20987;-66
2023/03/17 10:18:55;;;;;;;1.67;1.57;;;24.90;38.10;;;;;;5022549;28;21036;-70
2023/03/17 10:21:48;;;;;;;6.80;2.77;;;25.40;38.60;;;;;;5009632;28;20469;-69
2023/03/17 10:24:14;;;;;;;2.20;1.90;;;26.30;38.70;;;;;;5012027;28;20431;-70
2023/03/17 10:26:47;;;;;;;2.50;2.20;;;26.70;37.30;;;;;;5010920;28;20874;-71
2023/03/17 10:29:21;;;;;;;6.07;3.10;;;26.40;37.80;;;;;;5011533;28;20452;-72
2023/03/17 10:31:48;;;;;;;7.50;3.40;;;25.10;39.90;;;;;;5007679;28;20492;-65
2023/03/17 10:34:24;;;;;;;4.07;3.53;;;24.70;39.50;;;;;;5004696;28;20819;-65
2023/03/17 10:36:58;;;;;;;3.37;2.90;;;24.30;40.10;;;;;;5013047;28;20449;-65
2023/03/17 10:39:24;;;;;;;11.37;10.27;;;23.80;40.80;;;;;;5009225;28;20472;-65
2023/03/17 10:41:55;;;;;;;4.90;3.10;;;23.70;41.80;;;;;;5009578;28;20442;-65
2023/03/17 10:44:49;;;;;;;12.70;11.07;;;23.80;40.80;;;;;;5012393;28;20208;-65
2023/03/17 10:47:46;;;;;;;6.27;3.40;;;23.90;43.00;;;;;;5012106;28;20439;-66
2023/03/17 10:50:27;;;;;;;2.17;1.93;;;23.40;40.00;;;;;;5008285;28;20556;-66
2023/03/17 10:52:59;;;;;;;4.00;2.50;;;22.20;40.30;;;;;;5012565;28;20430;-66
2023/03/17 10:55:31;;;;;;;4.70;2.50;;;22.90;42.30;;;;;;5006252;28;20892;-66
2023/03/17 10:58:06;;;;;;;5.03;3.00;;;23.00;41.80;;;;;;5006181;28;20512;-66
2023/03/17 11:00:35;;;;;;;3.37;2.60;;;23.40;40.40;;;;;;5011674;28;20948;-66
2023/03/17 11:03:28;;;;;;;2.10;1.47;;;23.80;39.60;;;;;;5011384;28;20443;-68
2023/03/17 11:06:16;;;;;;;3.77;1.97;;;24.20;39.60;;;;;;5009188;28;20448;-66
2023/03/17 11:08:50;;;;;;;2.43;1.50;;;23.70;39.00;;;;;;5011217;28;20440;-66
2023/03/17 11:11:43;;;;;;;1.70;1.57;;;23.50;39.20;;;;;;5008649;28;21050;-66
2023/03/17 11:14:12;;;;;;;1.47;1.37;;;23.30;39.40;;;;;;5011853;28;20433;-66
2023/03/17 11:16:56;;;;;;;2.23;1.70;;;22.90;39.80;;;;;;5010816;28;20455;-65
2023/03/17 11:19:48;;;;;;;5.37;3.40;;;23.40;40.50;;;;;;5005088;28;20498;-65
2023/03/17 11:22:32;;;;;;;4.43;3.63;;;23.20;42.20;;;;;;5010780;28;20433;-65
2023/03/17 11:25:15;;;;;;;6.90;3.87;;;23.00;42.20;;;;;;5006683;28;20443;-66
2023/03/17 11:27:50;;;;;;;4.63;3.90;;;22.90;43.40;;;;;;5011442;28;20429;-66
2023/03/17 11:30:23;;;;;;;4.10;3.70;;;23.00;43.10;;;;;;5011903;28;20962;-66
2023/03/17 11:32:55;;;;;;;4.77;4.27;;;22.60;44.20;;;;;;5003282;28;20449;-66
2023/03/17 11:35:33;;;;;;;5.90;4.87;;;22.50;44.80;;;;;;5010453;28;20433;-66
2023/03/17 11:38:35;;;;;;;6.40;5.37;;;22.70;45.10;;;;;;5011493;28;20421;-66
2023/03/17 11:41:03;;;;;;;4.30;3.30;;;22.50;45.90;;;;;;5006507;28;20472;-67
2023/03/17 11:43:58;;;;;;;5.50;4.13;;;22.70;44.30;;;;;;5003567;28;20488;-69
2023/03/17 11:46:27;;;;;;;7.37;4.10;;;22.90;44.80;;;;;;5008012;28;20552;-69
2023/03/17 11:49:23;;;;;;;4.17;3.00;;;22.70;45.30;;;;;;5008614;28;20496;-69
2023/03/17 11:52:06;;;;;;;6.57;4.50;;;22.50;45.00;;;;;;5010729;28;20437;-68
2023/03/17 11:54:52;;;;;;;3.90;2.70;;;22.30;45.00;;;;;;5006436;28;20453;-70
2023/03/17 11:57:27;;;;;;;4.03;1.90;;;22.60;44.60;;;;;;5008022;28;20486;-70
2023/03/17 12:00:20;;;;;;;4.00;2.30;;;22.90;44.00;;;;;;5009365;28;20582;-71
2023/03/17 12:03:04;;;;;;;2.40;2.00;;;22.70;43.30;;;;;;5008871;28;20461;-72
2023/03/17 12:05:31;;;;;;;1.97;1.87;;;22.20;44.10;;;;;;5004359;28;20437;-72
2023/03/17 12:08:23;;;;;;;2.03;1.57;;;22.40;43.30;;;;;;5008426;28;20579;-72
2023/03/17 12:10:53;;;;;;;1.63;1.40;;;22.50;42.60;;;;;;5003687;28;20497;-72
2023/03/17 12:13:29;;;;;;;2.57;2.37;;;22.30;43.10;;;;;;5003533;28;20935;-69
2023/03/17 12:16:21;;;;;;;2.70;1.77;;;22.50;43.30;;;;;;5021458;28;21046;-71
2023/03/17 12:19:18;;;;;;;2.33;1.60;;;22.20;42.60;;;;;;5008705;28;20522;-71
2023/03/17 12:21:51;;;;;;;1.60;1.50;;;22.50;42.80;;;;;;5002193;28;20464;-71
2023/03/17 12:24:35;;;;;;;2.40;1.67;;;22.60;42.90;;;;;;5009454;28;20449;-71
2023/03/17 12:27:35;;;;;;;1.50;1.27;;;22.40;42.70;;;;;;5007610;28;20464;-71
2023/03/17 12:30:11;;;;;;;3.30;1.60;;;22.10;42.70;;;;;;5006709;28;20587;-70
2023/03/17 12:32:54;;;;;;;1.50;1.40;;;22.20;44.10;;;;;;5000291;28;20438;-67
2023/03/17 12:35:33;;;;;;;1.57;1.40;;;22.40;42.20;;;;;;5009579;28;20434;-67
2023/03/17 12:38:03;;;;;;;2.07;1.27;;;22.40;40.60;;;;;;5005052;28;20544;-67
2023/03/17 12:40:49;;;;;;;2.00;1.40;;;22.60;38.10;;;;;;5009660;28;20795;-67
2023/03/17 12:43:23;;;;;;;1.83;1.17;;;22.50;39.90;;;;;;5010375;28;20584;-67
2023/03/17 12:46:18;;;;;;;3.20;2.07;;;22.60;38.70;;;;;;5010870;28;20436;-67
2023/03/17 12:48:54;;;;;;;5.30;1.90;;;22.50;43.00;;;;;;5009749;28;20445;-68
2023/03/17 12:51:47;;;;;;;3.07;2.50;;;22.70;44.00;;;;;;5010122;28;20441;-68
2023/03/17 12:54:25;;;;;;;4.80;2.43;;;22.40;44.70;;;;;;5005933;28;21336;-68
2023/03/17 12:56:52;;;;;;;5.23;2.37;;;22.20;44.60;;;;;;5010314;28;20442;-67
2023/03/17 12:59:23;;;;;;;3.20;2.33;;;22.30;44.80;;;;;;5010233;28;20528;-67
2023/03/17 13:02:15;;;;;;;2.57;2.17;;;22.50;44.00;;;;;;5006569;28;20445;-67
2023/03/17 13:05:03;;;;;;;4.87;2.80;;;22.70;44.60;;;;;;5009460;28;20438;-67
2023/03/17 13:07:47;;;;;;;5.43;4.13;;;22.70;44.20;;;;;;5010532;28;20787;-68